sensor_id;sensor_type;location;lat;lon;timestamp;temperature;humidity
12769;DHT22;6448;48.916;8.990;2023-05-19T00:00:44;18.80;42.10
12769;DHT22;6448;48.916;8.990;2023-05-19T00:01:46;18.80;42.10
12769;DHT22;6448;48.916;8.990;2023-05-19T00:02:48;18.80;42.20
12769;DHT22;6448;48.916;8.990;2023-05-19T00:03:51;18.70;42.10
12769;DHT22;6448;48.916;8.990;2023-05-19T00:04:53;18.70;42.10
12769;DHT22;6448;48.916;8.990;2023-05-19T00:05:55;18.70;42.10
12769;DHT22;6448;48.916;8.990;2023-05-19T00:06:58;18.70;42.10
12769;DHT22;6448;48.916;8.990;2023-05-19T00:08:00;18.70;42.20
12769;DHT22;6448;48.916;8.990;2023-05-19T00:09:04;18.70;42.20
12769;DHT22;6448;48.916;8.990;2023-05-19T00:10:09;18.70;42.20
12769;DHT22;6448;48.916;8.990;2023-05-19T00:11:10;18.60;42.20
12769;DHT22;6448;48.916;8.990;2023-05-19T00:12:13;18.60;42.20
12769;DHT22;6448;48.916;8.990;2023-05-19T00:13:14;18.60;42.20
12769;DHT22;6448;48.916;8.990;2023-05-19T00:14:17;18.70;42.30
12769;DHT22;6448;48.916;8.990;2023-05-19T00:15:18;18.60;42.30
12769;DHT22;6448;48.916;8.990;2023-05-19T00:16:20;18.60;42.20
12769;DHT22;6448;48.916;8.990;2023-05-19T00:17:22;18.60;42.30
12769;DHT22;6448;48.916;8.990;2023-05-19T00:18:24;18.60;42.30
12769;DHT22;6448;48.916;8.990;2023-05-19T00:19:25;18.60;42.30
12769;DHT22;6448;48.916;8.990;2023-05-19T00:20:31;18.60;42.30
12769;DHT22;6448;48.916;8.990;2023-05-19T00:21:32;18.60;42.40
12769;DHT22;6448;48.916;8.990;2023-05-19T00:22:34;18.60;42.40
12769;DHT22;6448;48.916;8.990;2023-05-19T00:23:36;18.50;42.30
12769;DHT22;6448;48.916;8.990;2023-05-19T00:24:38;18.50;42.30
12769;DHT22;6448;48.916;8.990;2023-05-19T00:25:40;18.50;42.30
12769;DHT22;6448;48.916;8.990;2023-05-19T00:26:41;18.50;42.40
12769;DHT22;6448;48.916;8.990;2023-05-19T00:27:42;18.50;42.40
12769;DHT22;6448;48.916;8.990;2023-05-19T00:28:44;18.50;42.40
12769;DHT22;6448;48.916;8.990;2023-05-19T00:29:45;18.50;42.40
12769;DHT22;6448;48.916;8.990;2023-05-19T00:30:47;18.50;42.50
12769;DHT22;6448;48.916;8.990;2023-05-19T00:31:47;18.40;42.50
12769;DHT22;6448;48.916;8.990;2023-05-19T00:32:50;18.40;42.50
12769;DHT22;6448;48.916;8.990;2023-05-19T00:33:51;18.40;42.50
12769;DHT22;6448;48.916;8.990;2023-05-19T00:34:53;18.40;42.50
12769;DHT22;6448;48.916;8.990;2023-05-19T00:35:54;18.40;42.60
12769;DHT22;6448;48.916;8.990;2023-05-19T00:36:56;18.40;42.60
12769;DHT22;6448;48.916;8.990;2023-05-19T00:37:56;18.40;42.60
12769;DHT22;6448;48.916;8.990;2023-05-19T00:38:58;18.40;42.60
12769;DHT22;6448;48.916;8.990;2023-05-19T00:39:59;18.30;42.70
12769;DHT22;6448;48.916;8.990;2023-05-19T00:41:03;18.30;42.70
12769;DHT22;6448;48.916;8.990;2023-05-19T00:42:04;18.30;42.70
12769;DHT22;6448;48.916;8.990;2023-05-19T00:43:06;18.30;42.80
12769;DHT22;6448;48.916;8.990;2023-05-19T00:44:07;18.30;42.80
12769;DHT22;6448;48.916;8.990;2023-05-19T00:45:09;18.20;42.80
12769;DHT22;6448;48.916;8.990;2023-05-19T00:46:10;18.20;42.80
12769;DHT22;6448;48.916;8.990;2023-05-19T00:47:12;18.20;42.90
12769;DHT22;6448;48.916;8.990;2023-05-19T00:48:13;18.20;42.90
12769;DHT22;6448;48.916;8.990;2023-05-19T00:49:15;18.10;42.90
12769;DHT22;6448;48.916;8.990;2023-05-19T00:50:16;18.20;43.00
12769;DHT22;6448;48.916;8.990;2023-05-19T00:51:18;18.10;43.00
12769;DHT22;6448;48.916;8.990;2023-05-19T00:52:19;18.10;43.00
12769;DHT22;6448;48.916;8.990;2023-05-19T00:53:22;18.10;43.10
12769;DHT22;6448;48.916;8.990;2023-05-19T00:54:24;18.10;43.10
12769;DHT22;6448;48.916;8.990;2023-05-19T00:55:30;18.10;43.20
12769;DHT22;6448;48.916;8.990;2023-05-19T00:56:32;18.10;43.20
12769;DHT22;6448;48.916;8.990;2023-05-19T00:57:34;18.10;43.20
12769;DHT22;6448;48.916;8.990;2023-05-19T00:58:35;18.00;43.20
12769;DHT22;6448;48.916;8.990;2023-05-19T00:59:38;18.10;43.20
12769;DHT22;6448;48.916;8.990;2023-05-19T01:00:39;18.00;43.30
12769;DHT22;6448;48.916;8.990;2023-05-19T01:01:42;18.00;43.20
12769;DHT22;6448;48.916;8.990;2023-05-19T01:02:43;18.00;43.30
12769;DHT22;6448;48.916;8.990;2023-05-19T01:03:45;18.00;43.30
12769;DHT22;6448;48.916;8.990;2023-05-19T01:04:47;18.00;43.40
12769;DHT22;6448;48.916;8.990;2023-05-19T01:05:50;18.00;43.40
12769;DHT22;6448;48.916;8.990;2023-05-19T01:06:53;18.00;43.40
12769;DHT22;6448;48.916;8.990;2023-05-19T01:07:55;18.00;43.40
12769;DHT22;6448;48.916;8.990;2023-05-19T01:08:56;18.00;43.40
12769;DHT22;6448;48.916;8.990;2023-05-19T01:09:58;18.00;43.40
12769;DHT22;6448;48.916;8.990;2023-05-19T01:10:58;17.90;43.40
12769;DHT22;6448;48.916;8.990;2023-05-19T01:12:02;17.90;43.40
12769;DHT22;6448;48.916;8.990;2023-05-19T01:13:04;17.90;43.50
12769;DHT22;6448;48.916;8.990;2023-05-19T01:14:06;17.90;43.50
12769;DHT22;6448;48.916;8.990;2023-05-19T01:15:09;17.90;43.50
12769;DHT22;6448;48.916;8.990;2023-05-19T01:16:13;17.90;43.60
12769;DHT22;6448;48.916;8.990;2023-05-19T01:17:20;17.90;43.60
12769;DHT22;6448;48.916;8.990;2023-05-19T01:18:31;17.90;43.70
12769;DHT22;6448;48.916;8.990;2023-05-19T01:19:49;17.90;43.70
12769;DHT22;6448;48.916;8.990;2023-05-19T01:21:09;17.90;44.30
12769;DHT22;6448;48.916;8.990;2023-05-19T01:22:37;17.80;43.70
12769;DHT22;6448;48.916;8.990;2023-05-19T01:23:46;17.80;43.80
12769;DHT22;6448;48.916;8.990;2023-05-19T01:26:38;17.80;43.80
12769;DHT22;6448;48.916;8.990;2023-05-19T01:27:59;17.80;43.90
12769;DHT22;6448;48.916;8.990;2023-05-19T01:29:23;17.80;43.90
12769;DHT22;6448;48.916;8.990;2023-05-19T01:30:32;17.80;44.00
12769;DHT22;6448;48.916;8.990;2023-05-19T01:31:35;17.80;43.90
12769;DHT22;6448;48.916;8.990;2023-05-19T01:32:40;17.70;43.90
12769;DHT22;6448;48.916;8.990;2023-05-19T01:33:42;17.70;43.90
12769;DHT22;6448;48.916;8.990;2023-05-19T01:34:45;17.70;44.00
12769;DHT22;6448;48.916;8.990;2023-05-19T01:35:49;17.70;43.90
12769;DHT22;6448;48.916;8.990;2023-05-19T01:36:53;17.70;43.90
12769;DHT22;6448;48.916;8.990;2023-05-19T01:37:56;17.70;44.00
12769;DHT22;6448;48.916;8.990;2023-05-19T01:38:59;17.70;44.00
12769;DHT22;6448;48.916;8.990;2023-05-19T01:40:01;17.70;44.00
12769;DHT22;6448;48.916;8.990;2023-05-19T01:41:05;17.70;44.10
12769;DHT22;6448;48.916;8.990;2023-05-19T01:42:08;17.70;44.10
12769;DHT22;6448;48.916;8.990;2023-05-19T01:43:14;17.70;44.10
12769;DHT22;6448;48.916;8.990;2023-05-19T01:44:18;17.70;44.10
12769;DHT22;6448;48.916;8.990;2023-05-19T01:45:22;17.70;44.10
12769;DHT22;6448;48.916;8.990;2023-05-19T01:46:24;17.70;44.10
12769;DHT22;6448;48.916;8.990;2023-05-19T01:47:26;17.70;44.10
12769;DHT22;6448;48.916;8.990;2023-05-19T01:48:28;17.70;44.10
12769;DHT22;6448;48.916;8.990;2023-05-19T01:49:31;17.70;44.20
12769;DHT22;6448;48.916;8.990;2023-05-19T01:50:32;17.70;44.30
12769;DHT22;6448;48.916;8.990;2023-05-19T01:51:34;17.60;44.20
12769;DHT22;6448;48.916;8.990;2023-05-19T01:52:35;17.70;44.30
12769;DHT22;6448;48.916;8.990;2023-05-19T01:53:37;17.60;44.20
12769;DHT22;6448;48.916;8.990;2023-05-19T01:54:38;17.60;44.30
12769;DHT22;6448;48.916;8.990;2023-05-19T01:55:43;17.60;44.40
12769;DHT22;6448;48.916;8.990;2023-05-19T01:56:51;17.60;44.50
12769;DHT22;6448;48.916;8.990;2023-05-19T01:58:08;17.60;44.40
12769;DHT22;6448;48.916;8.990;2023-05-19T01:59:26;17.60;44.40
12769;DHT22;6448;48.916;8.990;2023-05-19T02:00:41;17.50;44.50
12769;DHT22;6448;48.916;8.990;2023-05-19T02:01:51;17.60;44.50
12769;DHT22;6448;48.916;8.990;2023-05-19T02:02:59;17.60;44.50
12769;DHT22;6448;48.916;8.990;2023-05-19T02:04:15;17.60;44.50
12769;DHT22;6448;48.916;8.990;2023-05-19T02:05:23;17.50;44.50
12769;DHT22;6448;48.916;8.990;2023-05-19T02:06:36;17.50;44.60
12769;DHT22;6448;48.916;8.990;2023-05-19T02:07:43;17.50;44.60
12769;DHT22;6448;48.916;8.990;2023-05-19T02:08:53;17.50;44.60
12769;DHT22;6448;48.916;8.990;2023-05-19T02:10:04;17.60;44.70
12769;DHT22;6448;48.916;8.990;2023-05-19T02:11:13;17.50;44.80
12769;DHT22;6448;48.916;8.990;2023-05-19T02:12:18;17.50;44.80
12769;DHT22;6448;48.916;8.990;2023-05-19T02:13:20;17.50;44.80
12769;DHT22;6448;48.916;8.990;2023-05-19T02:14:28;17.60;45.00
12769;DHT22;6448;48.916;8.990;2023-05-19T02:15:35;17.40;44.90
12769;DHT22;6448;48.916;8.990;2023-05-19T02:16:42;17.40;44.80
12769;DHT22;6448;48.916;8.990;2023-05-19T02:17:47;17.40;44.90
12769;DHT22;6448;48.916;8.990;2023-05-19T02:18:51;17.40;45.00
12769;DHT22;6448;48.916;8.990;2023-05-19T02:19:53;17.40;45.00
12769;DHT22;6448;48.916;8.990;2023-05-19T02:20:55;17.40;45.00
12769;DHT22;6448;48.916;8.990;2023-05-19T02:21:57;17.40;45.00
12769;DHT22;6448;48.916;8.990;2023-05-19T02:22:59;17.40;45.00
12769;DHT22;6448;48.916;8.990;2023-05-19T02:24:00;17.40;45.00
12769;DHT22;6448;48.916;8.990;2023-05-19T02:25:01;17.30;45.00
12769;DHT22;6448;48.916;8.990;2023-05-19T02:26:02;17.30;45.00
12769;DHT22;6448;48.916;8.990;2023-05-19T02:27:06;17.30;45.10
12769;DHT22;6448;48.916;8.990;2023-05-19T02:28:08;17.30;45.20
12769;DHT22;6448;48.916;8.990;2023-05-19T02:29:09;17.30;45.20
12769;DHT22;6448;48.916;8.990;2023-05-19T02:30:10;17.30;45.20
12769;DHT22;6448;48.916;8.990;2023-05-19T02:31:12;17.30;45.20
12769;DHT22;6448;48.916;8.990;2023-05-19T02:32:13;17.30;45.30
12769;DHT22;6448;48.916;8.990;2023-05-19T02:33:16;17.20;45.30
12769;DHT22;6448;48.916;8.990;2023-05-19T02:34:18;17.30;45.40
12769;DHT22;6448;48.916;8.990;2023-05-19T02:35:20;17.30;45.50
12769;DHT22;6448;48.916;8.990;2023-05-19T02:36:21;17.20;45.40
12769;DHT22;6448;48.916;8.990;2023-05-19T02:37:24;17.20;45.50
12769;DHT22;6448;48.916;8.990;2023-05-19T02:38:27;17.20;45.50
12769;DHT22;6448;48.916;8.990;2023-05-19T02:39:29;17.20;45.50
12769;DHT22;6448;48.916;8.990;2023-05-19T02:40:35;17.20;45.60
12769;DHT22;6448;48.916;8.990;2023-05-19T02:41:36;17.20;45.60
12769;DHT22;6448;48.916;8.990;2023-05-19T02:42:37;17.20;45.70
12769;DHT22;6448;48.916;8.990;2023-05-19T02:43:39;17.20;45.60
12769;DHT22;6448;48.916;8.990;2023-05-19T02:44:40;17.20;45.60
12769;DHT22;6448;48.916;8.990;2023-05-19T02:45:41;17.20;45.70
12769;DHT22;6448;48.916;8.990;2023-05-19T02:46:42;17.20;45.80
12769;DHT22;6448;48.916;8.990;2023-05-19T02:47:44;17.20;45.70
12769;DHT22;6448;48.916;8.990;2023-05-19T02:48:46;17.20;45.80
12769;DHT22;6448;48.916;8.990;2023-05-19T02:49:48;17.20;45.70
12769;DHT22;6448;48.916;8.990;2023-05-19T02:50:49;17.20;45.70
12769;DHT22;6448;48.916;8.990;2023-05-19T02:51:51;17.20;45.70
12769;DHT22;6448;48.916;8.990;2023-05-19T02:52:52;17.20;45.80
12769;DHT22;6448;48.916;8.990;2023-05-19T02:53:54;17.20;45.80
12769;DHT22;6448;48.916;8.990;2023-05-19T02:54:55;17.20;45.80
12769;DHT22;6448;48.916;8.990;2023-05-19T02:55:57;17.40;46.10
12769;DHT22;6448;48.916;8.990;2023-05-19T02:56:58;17.20;46.00
12769;DHT22;6448;48.916;8.990;2023-05-19T02:57:59;17.20;45.90
12769;DHT22;6448;48.916;8.990;2023-05-19T02:59:00;17.20;46.00
12769;DHT22;6448;48.916;8.990;2023-05-19T03:00:02;17.20;45.90
12769;DHT22;6448;48.916;8.990;2023-05-19T03:01:05;17.20;46.00
12769;DHT22;6448;48.916;8.990;2023-05-19T03:02:07;17.10;46.00
12769;DHT22;6448;48.916;8.990;2023-05-19T03:03:07;17.10;46.00
12769;DHT22;6448;48.916;8.990;2023-05-19T03:04:11;17.10;46.00
12769;DHT22;6448;48.916;8.990;2023-05-19T03:05:13;17.20;46.10
12769;DHT22;6448;48.916;8.990;2023-05-19T03:06:15;17.20;46.10
12769;DHT22;6448;48.916;8.990;2023-05-19T03:07:17;17.10;46.10
12769;DHT22;6448;48.916;8.990;2023-05-19T03:08:24;17.10;46.80
12769;DHT22;6448;48.916;8.990;2023-05-19T03:09:25;17.20;46.30
12769;DHT22;6448;48.916;8.990;2023-05-19T03:10:27;17.20;46.40
12769;DHT22;6448;48.916;8.990;2023-05-19T03:11:28;17.10;46.30
12769;DHT22;6448;48.916;8.990;2023-05-19T03:12:30;17.10;46.30
12769;DHT22;6448;48.916;8.990;2023-05-19T03:13:31;17.10;46.30
12769;DHT22;6448;48.916;8.990;2023-05-19T03:14:34;17.10;46.30
12769;DHT22;6448;48.916;8.990;2023-05-19T03:15:38;17.10;46.30
12769;DHT22;6448;48.916;8.990;2023-05-19T03:16:41;17.10;46.30
12769;DHT22;6448;48.916;8.990;2023-05-19T03:17:42;17.10;46.20
12769;DHT22;6448;48.916;8.990;2023-05-19T03:18:45;17.10;46.20
12769;DHT22;6448;48.916;8.990;2023-05-19T03:19:47;17.10;46.30
12769;DHT22;6448;48.916;8.990;2023-05-19T03:20:49;17.10;46.30
12769;DHT22;6448;48.916;8.990;2023-05-19T03:21:49;17.10;46.30
12769;DHT22;6448;48.916;8.990;2023-05-19T03:22:52;17.10;46.30
12769;DHT22;6448;48.916;8.990;2023-05-19T03:23:52;17.10;46.40
12769;DHT22;6448;48.916;8.990;2023-05-19T03:24:55;17.00;46.30
12769;DHT22;6448;48.916;8.990;2023-05-19T03:25:57;17.10;46.40
12769;DHT22;6448;48.916;8.990;2023-05-19T03:26:59;17.10;46.50
12769;DHT22;6448;48.916;8.990;2023-05-19T03:28:00;17.10;46.50
12769;DHT22;6448;48.916;8.990;2023-05-19T03:29:02;17.00;46.50
12769;DHT22;6448;48.916;8.990;2023-05-19T03:30:07;17.00;46.60
12769;DHT22;6448;48.916;8.990;2023-05-19T03:31:18;17.10;46.60
12769;DHT22;6448;48.916;8.990;2023-05-19T03:32:18;17.00;46.60
12769;DHT22;6448;48.916;8.990;2023-05-19T03:33:20;17.00;46.60
12769;DHT22;6448;48.916;8.990;2023-05-19T03:34:21;17.00;46.60
12769;DHT22;6448;48.916;8.990;2023-05-19T03:35:25;17.00;46.60
12769;DHT22;6448;48.916;8.990;2023-05-19T03:36:26;17.00;46.60
12769;DHT22;6448;48.916;8.990;2023-05-19T03:37:31;17.00;46.60
12769;DHT22;6448;48.916;8.990;2023-05-19T03:38:33;17.00;46.60
12769;DHT22;6448;48.916;8.990;2023-05-19T03:39:35;17.00;46.60
12769;DHT22;6448;48.916;8.990;2023-05-19T03:40:36;17.00;46.60
12769;DHT22;6448;48.916;8.990;2023-05-19T03:41:42;17.00;46.60
12769;DHT22;6448;48.916;8.990;2023-05-19T03:42:44;17.00;46.60
12769;DHT22;6448;48.916;8.990;2023-05-19T03:43:45;17.00;46.60
12769;DHT22;6448;48.916;8.990;2023-05-19T03:44:47;17.00;46.60
12769;DHT22;6448;48.916;8.990;2023-05-19T03:45:48;17.00;46.70
12769;DHT22;6448;48.916;8.990;2023-05-19T03:47:08;17.00;46.60
12769;DHT22;6448;48.916;8.990;2023-05-19T03:48:29;17.00;46.70
12769;DHT22;6448;48.916;8.990;2023-05-19T03:49:59;17.00;46.60
12769;DHT22;6448;48.916;8.990;2023-05-19T03:51:38;17.00;46.60
12769;DHT22;6448;48.916;8.990;2023-05-19T03:52:52;16.90;46.60
12769;DHT22;6448;48.916;8.990;2023-05-19T03:54:00;17.00;46.60
12769;DHT22;6448;48.916;8.990;2023-05-19T03:55:02;17.00;46.60
12769;DHT22;6448;48.916;8.990;2023-05-19T03:56:03;17.00;46.60
12769;DHT22;6448;48.916;8.990;2023-05-19T03:57:08;17.00;46.60
12769;DHT22;6448;48.916;8.990;2023-05-19T03:58:09;17.00;47.10
12769;DHT22;6448;48.916;8.990;2023-05-19T03:59:13;17.00;46.60
12769;DHT22;6448;48.916;8.990;2023-05-19T04:00:16;17.00;46.50
12769;DHT22;6448;48.916;8.990;2023-05-19T04:01:18;16.90;46.40
12769;DHT22;6448;48.916;8.990;2023-05-19T04:02:18;17.00;46.50
12769;DHT22;6448;48.916;8.990;2023-05-19T04:03:22;16.90;46.40
12769;DHT22;6448;48.916;8.990;2023-05-19T04:04:22;17.00;46.50
12769;DHT22;6448;48.916;8.990;2023-05-19T04:05:24;16.90;46.40
12769;DHT22;6448;48.916;8.990;2023-05-19T04:06:25;16.90;46.40
12769;DHT22;6448;48.916;8.990;2023-05-19T04:07:29;16.90;46.50
12769;DHT22;6448;48.916;8.990;2023-05-19T04:08:30;16.90;46.50
12769;DHT22;6448;48.916;8.990;2023-05-19T04:09:32;16.90;46.40
12769;DHT22;6448;48.916;8.990;2023-05-19T04:10:35;16.90;46.40
12769;DHT22;6448;48.916;8.990;2023-05-19T04:11:36;16.90;46.40
12769;DHT22;6448;48.916;8.990;2023-05-19T04:12:38;16.90;46.40
12769;DHT22;6448;48.916;8.990;2023-05-19T04:13:40;16.90;46.40
12769;DHT22;6448;48.916;8.990;2023-05-19T04:14:40;16.90;46.40
12769;DHT22;6448;48.916;8.990;2023-05-19T04:15:44;16.90;46.40
12769;DHT22;6448;48.916;8.990;2023-05-19T04:16:45;16.80;46.40
12769;DHT22;6448;48.916;8.990;2023-05-19T04:17:46;16.90;46.40
12769;DHT22;6448;48.916;8.990;2023-05-19T04:18:47;16.80;46.40
12769;DHT22;6448;48.916;8.990;2023-05-19T04:19:49;16.80;46.30
12769;DHT22;6448;48.916;8.990;2023-05-19T04:20:50;16.80;46.30
12769;DHT22;6448;48.916;8.990;2023-05-19T04:21:53;16.90;46.40
12769;DHT22;6448;48.916;8.990;2023-05-19T04:22:55;16.80;46.30
12769;DHT22;6448;48.916;8.990;2023-05-19T04:23:57;16.80;46.30
12769;DHT22;6448;48.916;8.990;2023-05-19T04:24:59;16.80;46.30
12769;DHT22;6448;48.916;8.990;2023-05-19T04:26:02;16.90;46.40
12769;DHT22;6448;48.916;8.990;2023-05-19T04:27:06;16.80;46.30
12769;DHT22;6448;48.916;8.990;2023-05-19T04:28:11;16.80;46.30
12769;DHT22;6448;48.916;8.990;2023-05-19T04:29:12;16.80;46.30
12769;DHT22;6448;48.916;8.990;2023-05-19T04:30:17;16.80;46.30
12769;DHT22;6448;48.916;8.990;2023-05-19T04:31:21;16.80;46.30
12769;DHT22;6448;48.916;8.990;2023-05-19T04:32:23;16.80;46.30
12769;DHT22;6448;48.916;8.990;2023-05-19T04:33:26;16.80;46.30
12769;DHT22;6448;48.916;8.990;2023-05-19T04:34:28;16.80;46.40
12769;DHT22;6448;48.916;8.990;2023-05-19T04:35:30;17.00;46.40
12769;DHT22;6448;48.916;8.990;2023-05-19T04:36:33;16.80;46.30
12769;DHT22;6448;48.916;8.990;2023-05-19T04:37:34;16.80;46.30
12769;DHT22;6448;48.916;8.990;2023-05-19T04:38:39;16.80;46.40
12769;DHT22;6448;48.916;8.990;2023-05-19T04:39:42;16.80;46.30
12769;DHT22;6448;48.916;8.990;2023-05-19T04:40:45;16.80;46.30
12769;DHT22;6448;48.916;8.990;2023-05-19T04:41:49;16.80;46.30
12769;DHT22;6448;48.916;8.990;2023-05-19T04:42:54;16.80;46.30
12769;DHT22;6448;48.916;8.990;2023-05-19T04:43:55;16.90;46.40
12769;DHT22;6448;48.916;8.990;2023-05-19T04:44:57;16.80;46.40
12769;DHT22;6448;48.916;8.990;2023-05-19T04:46:00;16.80;46.40
12769;DHT22;6448;48.916;8.990;2023-05-19T04:47:06;16.80;46.40
12769;DHT22;6448;48.916;8.990;2023-05-19T04:48:08;16.80;46.40
12769;DHT22;6448;48.916;8.990;2023-05-19T04:49:09;16.80;46.40
12769;DHT22;6448;48.916;8.990;2023-05-19T04:50:12;16.80;46.40
12769;DHT22;6448;48.916;8.990;2023-05-19T04:51:13;16.90;46.40
12769;DHT22;6448;48.916;8.990;2023-05-19T04:52:17;16.80;46.40
12769;DHT22;6448;48.916;8.990;2023-05-19T04:53:21;16.80;46.40
12769;DHT22;6448;48.916;8.990;2023-05-19T04:54:23;16.80;46.40
12769;DHT22;6448;48.916;8.990;2023-05-19T04:55:25;16.80;46.50
12769;DHT22;6448;48.916;8.990;2023-05-19T04:56:31;16.80;46.50
12769;DHT22;6448;48.916;8.990;2023-05-19T04:57:33;16.80;46.50
12769;DHT22;6448;48.916;8.990;2023-05-19T04:58:34;16.80;46.60
12769;DHT22;6448;48.916;8.990;2023-05-19T04:59:37;16.80;46.50
12769;DHT22;6448;48.916;8.990;2023-05-19T05:00:41;16.80;46.60
12769;DHT22;6448;48.916;8.990;2023-05-19T05:01:42;16.80;46.60
12769;DHT22;6448;48.916;8.990;2023-05-19T05:02:46;16.90;46.60
12769;DHT22;6448;48.916;8.990;2023-05-19T05:03:51;16.90;46.60
12769;DHT22;6448;48.916;8.990;2023-05-19T05:04:54;16.80;46.60
12769;DHT22;6448;48.916;8.990;2023-05-19T05:05:56;16.80;46.60
12769;DHT22;6448;48.916;8.990;2023-05-19T05:06:58;16.80;46.60
12769;DHT22;6448;48.916;8.990;2023-05-19T05:07:59;16.80;46.60
12769;DHT22;6448;48.916;8.990;2023-05-19T05:09:04;16.80;46.70
12769;DHT22;6448;48.916;8.990;2023-05-19T05:10:08;16.90;46.80
12769;DHT22;6448;48.916;8.990;2023-05-19T05:11:10;16.80;46.70
12769;DHT22;6448;48.916;8.990;2023-05-19T05:12:13;16.80;46.70
12769;DHT22;6448;48.916;8.990;2023-05-19T05:13:15;16.90;46.70
12769;DHT22;6448;48.916;8.990;2023-05-19T05:14:17;16.80;46.80
12769;DHT22;6448;48.916;8.990;2023-05-19T05:15:21;16.90;46.80
12769;DHT22;6448;48.916;8.990;2023-05-19T05:16:25;16.90;46.90
12769;DHT22;6448;48.916;8.990;2023-05-19T05:17:26;16.90;46.90
12769;DHT22;6448;48.916;8.990;2023-05-19T05:18:29;16.90;46.90
12769;DHT22;6448;48.916;8.990;2023-05-19T05:19:30;16.90;46.90
12769;DHT22;6448;48.916;8.990;2023-05-19T05:20:33;16.90;46.90
12769;DHT22;6448;48.916;8.990;2023-05-19T05:21:34;16.90;46.90
12769;DHT22;6448;48.916;8.990;2023-05-19T05:22:36;16.90;46.90
12769;DHT22;6448;48.916;8.990;2023-05-19T05:23:39;16.90;46.80
12769;DHT22;6448;48.916;8.990;2023-05-19T05:24:41;16.90;46.80
12769;DHT22;6448;48.916;8.990;2023-05-19T05:25:45;16.90;46.80
12769;DHT22;6448;48.916;8.990;2023-05-19T05:26:48;16.90;46.80
12769;DHT22;6448;48.916;8.990;2023-05-19T05:27:50;16.90;47.50
12769;DHT22;6448;48.916;8.990;2023-05-19T05:28:52;16.90;46.90
12769;DHT22;6448;48.916;8.990;2023-05-19T05:29:53;16.90;46.80
12769;DHT22;6448;48.916;8.990;2023-05-19T05:30:55;17.00;46.80
12769;DHT22;6448;48.916;8.990;2023-05-19T05:31:57;16.90;46.80
12769;DHT22;6448;48.916;8.990;2023-05-19T05:33:00;16.90;47.30
12769;DHT22;6448;48.916;8.990;2023-05-19T05:34:05;17.00;46.90
12769;DHT22;6448;48.916;8.990;2023-05-19T05:35:08;17.00;46.90
12769;DHT22;6448;48.916;8.990;2023-05-19T05:36:09;16.90;46.90
12769;DHT22;6448;48.916;8.990;2023-05-19T05:37:11;17.00;46.90
12769;DHT22;6448;48.916;8.990;2023-05-19T05:38:11;17.00;46.90
12769;DHT22;6448;48.916;8.990;2023-05-19T05:39:14;17.00;46.80
12769;DHT22;6448;48.916;8.990;2023-05-19T05:40:17;17.00;46.90
12769;DHT22;6448;48.916;8.990;2023-05-19T05:41:21;17.00;46.90
12769;DHT22;6448;48.916;8.990;2023-05-19T05:42:24;17.00;46.90
12769;DHT22;6448;48.916;8.990;2023-05-19T05:43:26;17.00;47.50
12769;DHT22;6448;48.916;8.990;2023-05-19T05:44:32;17.00;46.80
12769;DHT22;6448;48.916;8.990;2023-05-19T05:45:35;17.00;46.80
12769;DHT22;6448;48.916;8.990;2023-05-19T05:46:39;17.00;46.90
12769;DHT22;6448;48.916;8.990;2023-05-19T05:47:41;17.00;46.90
12769;DHT22;6448;48.916;8.990;2023-05-19T05:48:43;17.00;46.90
12769;DHT22;6448;48.916;8.990;2023-05-19T05:49:46;17.00;47.00
12769;DHT22;6448;48.916;8.990;2023-05-19T05:50:49;17.00;47.10
12769;DHT22;6448;48.916;8.990;2023-05-19T05:51:55;17.00;47.10
12769;DHT22;6448;48.916;8.990;2023-05-19T05:52:56;17.00;47.10
12769;DHT22;6448;48.916;8.990;2023-05-19T05:54:04;17.20;47.10
12769;DHT22;6448;48.916;8.990;2023-05-19T05:55:11;17.00;47.10
12769;DHT22;6448;48.916;8.990;2023-05-19T05:56:14;17.00;47.10
12769;DHT22;6448;48.916;8.990;2023-05-19T05:57:24;17.00;46.90
12769;DHT22;6448;48.916;8.990;2023-05-19T05:58:29;17.00;46.90
12769;DHT22;6448;48.916;8.990;2023-05-19T05:59:32;17.10;46.90
12769;DHT22;6448;48.916;8.990;2023-05-19T06:00:34;17.10;46.90
12769;DHT22;6448;48.916;8.990;2023-05-19T06:01:36;17.10;46.90
12769;DHT22;6448;48.916;8.990;2023-05-19T06:02:41;17.10;46.90
12769;DHT22;6448;48.916;8.990;2023-05-19T06:03:43;17.10;46.90
12769;DHT22;6448;48.916;8.990;2023-05-19T06:04:48;17.10;47.00
12769;DHT22;6448;48.916;8.990;2023-05-19T06:05:48;17.10;47.10
12769;DHT22;6448;48.916;8.990;2023-05-19T06:06:50;17.10;47.20
12769;DHT22;6448;48.916;8.990;2023-05-19T06:07:56;17.10;47.30
12769;DHT22;6448;48.916;8.990;2023-05-19T06:09:00;17.10;47.10
12769;DHT22;6448;48.916;8.990;2023-05-19T06:10:02;17.10;47.10
12769;DHT22;6448;48.916;8.990;2023-05-19T06:11:04;17.10;47.20
12769;DHT22;6448;48.916;8.990;2023-05-19T06:12:08;17.10;47.10
12769;DHT22;6448;48.916;8.990;2023-05-19T06:13:16;17.10;47.10
12769;DHT22;6448;48.916;8.990;2023-05-19T06:14:21;17.10;47.10
12769;DHT22;6448;48.916;8.990;2023-05-19T06:15:42;17.10;47.10
12769;DHT22;6448;48.916;8.990;2023-05-19T06:17:03;17.10;47.00
12769;DHT22;6448;48.916;8.990;2023-05-19T06:18:06;17.10;47.10
12769;DHT22;6448;48.916;8.990;2023-05-19T06:19:06;17.10;47.10
12769;DHT22;6448;48.916;8.990;2023-05-19T06:20:10;17.10;47.00
12769;DHT22;6448;48.916;8.990;2023-05-19T06:21:12;17.20;47.00
12769;DHT22;6448;48.916;8.990;2023-05-19T06:22:15;17.20;47.10
12769;DHT22;6448;48.916;8.990;2023-05-19T06:23:16;17.20;47.00
12769;DHT22;6448;48.916;8.990;2023-05-19T06:24:17;17.20;47.10
12769;DHT22;6448;48.916;8.990;2023-05-19T06:25:18;17.20;47.10
12769;DHT22;6448;48.916;8.990;2023-05-19T06:26:21;17.20;47.20
12769;DHT22;6448;48.916;8.990;2023-05-19T06:27:22;17.20;47.30
12769;DHT22;6448;48.916;8.990;2023-05-19T06:28:25;17.30;47.40
12769;DHT22;6448;48.916;8.990;2023-05-19T06:29:27;17.20;47.30
12769;DHT22;6448;48.916;8.990;2023-05-19T06:30:31;17.20;47.30
12769;DHT22;6448;48.916;8.990;2023-05-19T06:31:45;17.20;47.30
12769;DHT22;6448;48.916;8.990;2023-05-19T06:32:50;17.30;47.50
12769;DHT22;6448;48.916;8.990;2023-05-19T06:33:50;17.40;47.70
12769;DHT22;6448;48.916;8.990;2023-05-19T06:34:54;17.30;47.60
12769;DHT22;6448;48.916;8.990;2023-05-19T06:35:56;17.30;47.50
12769;DHT22;6448;48.916;8.990;2023-05-19T06:36:58;17.30;47.50
12769;DHT22;6448;48.916;8.990;2023-05-19T06:38:01;17.30;47.40
12769;DHT22;6448;48.916;8.990;2023-05-19T06:39:03;17.30;47.40
12769;DHT22;6448;48.916;8.990;2023-05-19T06:40:07;17.30;47.40
12769;DHT22;6448;48.916;8.990;2023-05-19T06:41:11;17.40;47.50
12769;DHT22;6448;48.916;8.990;2023-05-19T06:42:12;17.40;47.50
12769;DHT22;6448;48.916;8.990;2023-05-19T06:43:33;17.40;47.50
12769;DHT22;6448;48.916;8.990;2023-05-19T06:44:38;17.40;48.20
12769;DHT22;6448;48.916;8.990;2023-05-19T06:45:43;17.40;47.50
12769;DHT22;6448;48.916;8.990;2023-05-19T06:46:45;17.40;47.40
12769;DHT22;6448;48.916;8.990;2023-05-19T06:47:46;17.40;47.40
12769;DHT22;6448;48.916;8.990;2023-05-19T06:48:48;17.40;47.50
12769;DHT22;6448;48.916;8.990;2023-05-19T06:49:51;17.50;47.60